Troy, Ohio
Current Conditions -  °F | °C
As of 9:56 PM on Wednesday 22 Oct 2014 (Local Time) from KDAY Reporting Station
Overcast Overcast  
Wind Chill: 45°   Ceiling: 2100
Heat Index: 48°   Visibility: 10mi
Dew Point: 40°   Wind: 6mph
Humidity: 74%   Direction: 50°NE
Pressure: 30.29"   Gusts: NA
Location:  40.04°N, 84.2°W
Report Text: KDAY 230156Z 05005KT 10SM OVC021 09/04 A3029 RMK AO2 SLP261 T00890044
Loading
Personal Weather Stations






























Interactive Weather Map New forecast layout! Learn more

10-Day Weather Forecast

Advertisements
Track Severe Weather on mobile